Terminal Aerodrome Forecast
Issued by NWS Memphis, TN

Current Version | Previous Version | Text Only | Print | Product List | Glossary On
Versions: 1 2 3 4 5 6 7 8 9 10 11 12 13
000
FTUS44 KMEG 172300
TAFJBR
TAF
KJBR 172331Z 1800/1824 18006KT P6SM SCT035 BKN060 OVC100
     FM180200 VRB03KT P6SM OVC035
     FM180700 VRB03KT P6SM VCTS OVC025CB
     FM181200 09006KT P6SM BKN040=

USA.gov is the U.S. government's official web portal to all federal, state and local government web resources and services.